Abernant, Alabama
Current Conditions -  °F | °C
As of 7:53 PM on Sunday 25 Jan 2015 (Local Time) from KTCL Reporting Station
Broken Clouds Broken Clouds  
Wind Chill: 11°   Ceiling: 8500
Heat Index: 11°   Visibility: 10mi
Dew Point:   Wind: 9mph
Humidity: 68%   Direction: 310°NW
Pressure: 29.82"   Gusts: NA
Location:  33.29°N, 87.2°W
Report Text: KTCL 260153Z 31008KT 10SM FEW060 BKN085 11/05 A2982 RMK AO2 SLP099 T01060050
Loading
Personal Weather Stations






























Interactive Weather Map New forecast layout! Learn more

10-Day Weather Forecast

Advertisements
Track Severe Weather on mobile